Blue Galaxy — SWDA — position and weather

sailwx.info

Track history (hours):
 
Tides and Currents Weather Stations Pressure Air Temp Water Temp Dewpoint Dewpoint Depression Visibility Wind Speed Wind Dir Waves Ship Positions

Blue Galaxy

Last reported at 2016-Feb-14 20:33 UTC. Time now 2016-Feb-14 23:06 UTC.
Position N 37°38' E 023°43'.

Length 192 m; draft 6.7 m.

Type: Passenger vessel. MMSI: 239672000.

Date/timePositionNaut miles runAvg speedWind from/ knotsBaromVisibWave heightAir tempDewpointWater temp
2016-Feb-14 20:33N 37°38' E 023°43'1818.1
2016-Feb-14 19:33N 37°55' E 023°37'2 2.1
2016-Feb-14 18:33N 37°57' E 023°38'0 0.0
2016-Feb-14 17:33N 37°57' E 023°38'0 0.0
2016-Feb-14 16:33N 37°57' E 023°38'0 0.0
2016-Feb-14 15:34N 37°57' E 023°38'0 0.0
2016-Feb-14 14:33N 37°57' E 023°38'0 0.0
2016-Feb-14 13:33N 37°57' E 023°38'0 0.0
2016-Feb-14 12:33N 37°57' E 023°38'0 0.0
2016-Feb-14 11:34N 37°57' E 023°38'0 0.0
2016-Feb-14 10:33N 37°57' E 023°38'0 0.0
2016-Feb-14 09:33N 37°57' E 023°38'0 0.0
2016-Feb-14 08:33N 37°57' E 023°38'0 0.0
2016-Feb-14 07:34N 37°57' E 023°38'0 0.0
2016-Feb-14 06:33N 37°57' E 023°38'0 0.0
2016-Feb-14 05:34N 37°57' E 023°38'0 0.0
2016-Feb-14 04:34N 37°57' E 023°38'0 0.5
2016-Feb-14 03:34N 37°56' E 023°38'1716.9
2016-Feb-14 02:34N 37°41' E 023°45'1919.2
2016-Feb-14 01:33N 37°22' E 023°50'17 0.6
2016-Feb-12 20:33N 37°38' E 023°43'1818.2
2016-Feb-12 19:34N 37°55' E 023°37'2 1.7
2016-Feb-12 18:33N 37°57' E 023°38'0 0.0
2016-Feb-12 17:33N 37°57' E 023°38'0 0.0
2016-Feb-12 16:33N 37°57' E 023°38'0 0.0
2016-Feb-12 15:33N 37°57' E 023°38'0 0.0
2016-Feb-12 14:33N 37°57' E 023°38'0 0.0
2016-Feb-12 13:33N 37°57' E 023°38'0 0.0
2016-Feb-12 12:33N 37°57' E 023°38'0 0.0
2016-Feb-12 11:33N 37°57' E 023°38'0 0.0
2016-Feb-12 10:33N 37°57' E 023°38'0 0.0
2016-Feb-12 09:33N 37°57' E 023°38'0 0.0
2016-Feb-12 08:33N 37°57' E 023°38'0 0.0
2016-Feb-12 07:33N 37°57' E 023°38'0 0.0
2016-Feb-12 06:33N 37°57' E 023°38'0 0.0
2016-Feb-12 05:33N 37°57' E 023°38'0 0.0
2016-Feb-12 04:33N 37°57' E 023°38'0 0.4
2016-Feb-12 03:34N 37°56' E 023°38'1716.8
2016-Feb-12 02:34N 37°41' E 023°45'3 0.1
2016-Feb-10 20:32N 37°38' E 023°43'1717.7
2016-Feb-10 19:33N 37°55' E 023°37'2 1.9
2016-Feb-10 18:33N 37°57' E 023°38'0 0.0
2016-Feb-10 17:33N 37°57' E 023°38'0 0.0
2016-Feb-10 16:33N 37°57' E 023°38'0 0.0
2016-Feb-10 15:33N 37°57' E 023°38'0 0.0
2016-Feb-10 14:33N 37°57' E 023°38'0 0.0
2016-Feb-10 13:33N 37°57' E 023°38'0 0.0
2016-Feb-10 12:33N 37°57' E 023°38'0 0.0
2016-Feb-10 11:33N 37°57' E 023°38'0 0.0
2016-Feb-10 10:33N 37°57' E 023°38'0 0.0
2016-Feb-10 09:33N 37°57' E 023°38'0 0.0
2016-Feb-10 08:33N 37°57' E 023°38'0 0.0
2016-Feb-10 07:33N 37°57' E 023°38'0 0.0
2016-Feb-10 06:33N 37°57' E 023°38'0 0.0
2016-Feb-10 05:33N 37°57' E 023°38'0 0.0
2016-Feb-10 04:33N 37°57' E 023°38'1 0.9
2016-Feb-10 03:34N 37°56' E 023°37'1818.2
2016-Feb-10 02:33N 37°40' E 023°46'4 0.1
2016-Feb-08 20:33N 37°37' E 023°44'1918.6
2016-Feb-08 19:33N 37°55' E 023°37'2 2.4
2016-Feb-08 18:34N 37°57' E 023°38'0 0.0
2016-Feb-08 17:33N 37°57' E 023°38'0 0.0
2016-Feb-08 16:33N 37°57' E 023°38'0 0.0
2016-Feb-08 15:33N 37°57' E 023°38'0 0.0
2016-Feb-08 14:33N 37°57' E 023°38'0 0.0
2016-Feb-08 13:33N 37°57' E 023°38'0 0.0
2016-Feb-08 12:33N 37°57' E 023°38'0 0.0
2016-Feb-08 11:33N 37°57' E 023°38'0 0.0
2016-Feb-08 10:33N 37°57' E 023°38'0 0.0
2016-Feb-08 09:34N 37°57' E 023°38'0 0.0
2016-Feb-08 08:34N 37°57' E 023°38'0 0.0
2016-Feb-08 07:33N 37°57' E 023°38'0 0.0
2016-Feb-08 06:34N 37°57' E 023°38'0 0.0
2016-Feb-08 05:34N 37°57' E 023°38'0 0.0
2016-Feb-08 04:33N 37°57' E 023°38'0 0.2
2016-Feb-08 03:34N 37°57' E 023°38'1615.7
2016-Feb-08 02:33N 37°42' E 023°45'5 0.2
2016-Feb-06 20:33N 37°37' E 023°43'1818.6
2016-Feb-06 19:33N 37°55' E 023°37'2 2.3
2016-Feb-06 18:33N 37°57' E 023°38'0 0.0
2016-Feb-06 17:33N 37°57' E 023°38'0 0.0
2016-Feb-06 16:33N 37°57' E 023°38'0 0.0
2016-Feb-06 15:33N 37°57' E 023°38'0 0.0
2016-Feb-06 14:33N 37°57' E 023°38'0 0.0
2016-Feb-06 13:33N 37°57' E 023°38'0 0.0
2016-Feb-06 12:33N 37°57' E 023°38'0 0.0
2016-Feb-06 11:33N 37°57' E 023°38'0 0.0
2016-Feb-06 10:33N 37°57' E 023°38'0 0.0
2016-Feb-06 09:33N 37°57' E 023°38'0 0.0
2016-Feb-06 08:33N 37°57' E 023°38'0 0.0
2016-Feb-06 07:33N 37°57' E 023°38'0 0.0
2016-Feb-06 06:33N 37°57' E 023°38'0 0.0
2016-Feb-06 05:33N 37°57' E 023°38'0 0.0
2016-Feb-06 04:33N 37°57' E 023°38'0 0.0
2016-Feb-06 03:33N 37°57' E 023°38'0 0.0
2016-Feb-06 02:33N 37°57' E 023°38'0 0.0
2016-Feb-06 01:33N 37°57' E 023°38'0 0.0
2016-Feb-06 00:33N 37°57' E 023°38'0 0.0
2016-Feb-05 23:33N 37°57' E 023°38'0 0.0
2016-Feb-05 22:33N 37°57' E 023°38'0 0.0
2016-Feb-05 21:33N 37°57' E 023°38'0 0.0
2016-Feb-05 20:33N 37°57' E 023°38'0 0.0
2016-Feb-05 19:33N 37°57' E 023°38'0 0.0
2016-Feb-05 18:33N 37°57' E 023°38'0 0.0
2016-Feb-05 17:33N 37°57' E 023°38'0 0.0
2016-Feb-05 16:33N 37°57' E 023°38'0 0.0
2016-Feb-05 15:33N 37°57' E 023°38'0 0.0
2016-Feb-05 14:33N 37°57' E 023°38'0 0.0
2016-Feb-05 13:33N 37°57' E 023°38'0 0.0
2016-Feb-05 12:33N 37°57' E 023°38'0 0.0
2016-Feb-05 11:33N 37°57' E 023°38'0 0.0
2016-Feb-05 10:33N 37°57' E 023°38'0 0.0
2016-Feb-05 09:33N 37°57' E 023°38'0 0.0
2016-Feb-05 08:33N 37°57' E 023°38'0 0.0
2016-Feb-05 07:33N 37°57' E 023°38'0 0.0
2016-Feb-05 06:33N 37°57' E 023°38'0 0.0
2016-Feb-05 05:33N 37°57' E 023°38'0 0.0
2016-Feb-05 04:33N 37°57' E 023°38'0 0.0
2016-Feb-05 03:33N 37°57' E 023°38'0 0.0
2016-Feb-05 02:33N 37°57' E 023°38'0 0.0
2016-Feb-05 01:33N 37°57' E 023°38'0 0.0
2016-Feb-05 00:33N 37°57' E 023°38'0 0.0
2016-Feb-04 23:33N 37°57' E 023°38'0 0.0
2016-Feb-04 22:33N 37°57' E 023°38'0 0.0
2016-Feb-04 21:33N 37°57' E 023°38'  
Track history (hours):
 
Tides and Currents Weather Stations Pressure Air Temp Water Temp Dewpoint Dewpoint Depression Visibility Wind Speed Wind Dir Waves Ship Positions

Blue Galaxy

Last reported at 2016-Feb-14 20:33 UTC. Time now 2016-Feb-14 23:06 UTC.
Position N 37°38' E 023°43'.

Length 192 m; draft 6.7 m.

Type: Passenger vessel. MMSI: 239672000.

Date/timePositionNaut miles runAvg speedWind from/ knotsBaromVisibWave heightAir tempDewpointWater temp
2016-Feb-14 20:33N 37°38' E 023°43'1818.1
2016-Feb-14 19:33N 37°55' E 023°37'2 2.1
2016-Feb-14 18:33N 37°57' E 023°38'0 0.0
2016-Feb-14 17:33N 37°57' E 023°38'0 0.0
2016-Feb-14 16:33N 37°57' E 023°38'0 0.0
2016-Feb-14 15:34N 37°57' E 023°38'0 0.0
2016-Feb-14 14:33N 37°57' E 023°38'0 0.0
2016-Feb-14 13:33N 37°57' E 023°38'0 0.0
2016-Feb-14 12:33N 37°57' E 023°38'0 0.0
2016-Feb-14 11:34N 37°57' E 023°38'0 0.0
2016-Feb-14 10:33N 37°57' E 023°38'0 0.0
2016-Feb-14 09:33N 37°57' E 023°38'0 0.0
2016-Feb-14 08:33N 37°57' E 023°38'0 0.0
2016-Feb-14 07:34N 37°57' E 023°38'0 0.0
2016-Feb-14 06:33N 37°57' E 023°38'0 0.0
2016-Feb-14 05:34N 37°57' E 023°38'0 0.0
2016-Feb-14 04:34N 37°57' E 023°38'0 0.5
2016-Feb-14 03:34N 37°56' E 023°38'1716.9
2016-Feb-14 02:34N 37°41' E 023°45'1919.2
2016-Feb-14 01:33N 37°22' E 023°50'17 0.6
2016-Feb-12 20:33N 37°38' E 023°43'1818.2
2016-Feb-12 19:34N 37°55' E 023°37'2 1.7
2016-Feb-12 18:33N 37°57' E 023°38'0 0.0
2016-Feb-12 17:33N 37°57' E 023°38'0 0.0
2016-Feb-12 16:33N 37°57' E 023°38'0 0.0
2016-Feb-12 15:33N 37°57' E 023°38'0 0.0
2016-Feb-12 14:33N 37°57' E 023°38'0 0.0
2016-Feb-12 13:33N 37°57' E 023°38'0 0.0
2016-Feb-12 12:33N 37°57' E 023°38'0 0.0
2016-Feb-12 11:33N 37°57' E 023°38'0 0.0
2016-Feb-12 10:33N 37°57' E 023°38'0 0.0
2016-Feb-12 09:33N 37°57' E 023°38'0 0.0
2016-Feb-12 08:33N 37°57' E 023°38'0 0.0
2016-Feb-12 07:33N 37°57' E 023°38'0 0.0
2016-Feb-12 06:33N 37°57' E 023°38'0 0.0
2016-Feb-12 05:33N 37°57' E 023°38'0 0.0
2016-Feb-12 04:33N 37°57' E 023°38'0 0.4
2016-Feb-12 03:34N 37°56' E 023°38'1716.8
2016-Feb-12 02:34N 37°41' E 023°45'3 0.1
2016-Feb-10 20:32N 37°38' E 023°43'1717.7
2016-Feb-10 19:33N 37°55' E 023°37'2 1.9
2016-Feb-10 18:33N 37°57' E 023°38'0 0.0
2016-Feb-10 17:33N 37°57' E 023°38'0 0.0
2016-Feb-10 16:33N 37°57' E 023°38'0 0.0
2016-Feb-10 15:33N 37°57' E 023°38'0 0.0
2016-Feb-10 14:33N 37°57' E 023°38'0 0.0
2016-Feb-10 13:33N 37°57' E 023°38'0 0.0
2016-Feb-10 12:33N 37°57' E 023°38'0 0.0
2016-Feb-10 11:33N 37°57' E 023°38'0 0.0
2016-Feb-10 10:33N 37°57' E 023°38'0 0.0
2016-Feb-10 09:33N 37°57' E 023°38'0 0.0
2016-Feb-10 08:33N 37°57' E 023°38'0 0.0
2016-Feb-10 07:33N 37°57' E 023°38'0 0.0
2016-Feb-10 06:33N 37°57' E 023°38'0 0.0
2016-Feb-10 05:33N 37°57' E 023°38'0 0.0
2016-Feb-10 04:33N 37°57' E 023°38'1 0.9
2016-Feb-10 03:34N 37°56' E 023°37'1818.2
2016-Feb-10 02:33N 37°40' E 023°46'4 0.1
2016-Feb-08 20:33N 37°37' E 023°44'1918.6
2016-Feb-08 19:33N 37°55' E 023°37'2 2.4
2016-Feb-08 18:34N 37°57' E 023°38'0 0.0
2016-Feb-08 17:33N 37°57' E 023°38'0 0.0
2016-Feb-08 16:33N 37°57' E 023°38'0 0.0
2016-Feb-08 15:33N 37°57' E 023°38'0 0.0
2016-Feb-08 14:33N 37°57' E 023°38'0 0.0
2016-Feb-08 13:33N 37°57' E 023°38'0 0.0
2016-Feb-08 12:33N 37°57' E 023°38'0 0.0
2016-Feb-08 11:33N 37°57' E 023°38'0 0.0
2016-Feb-08 10:33N 37°57' E 023°38'0 0.0
2016-Feb-08 09:34N 37°57' E 023°38'0 0.0
2016-Feb-08 08:34N 37°57' E 023°38'0 0.0
2016-Feb-08 07:33N 37°57' E 023°38'0 0.0
2016-Feb-08 06:34N 37°57' E 023°38'0 0.0
2016-Feb-08 05:34N 37°57' E 023°38'0 0.0
2016-Feb-08 04:33N 37°57' E 023°38'0 0.2
2016-Feb-08 03:34N 37°57' E 023°38'1615.7
2016-Feb-08 02:33N 37°42' E 023°45'5 0.2
2016-Feb-06 20:33N 37°37' E 023°43'1818.6
2016-Feb-06 19:33N 37°55' E 023°37'2 2.3
2016-Feb-06 18:33N 37°57' E 023°38'0 0.0
2016-Feb-06 17:33N 37°57' E 023°38'0 0.0
2016-Feb-06 16:33N 37°57' E 023°38'0 0.0
2016-Feb-06 15:33N 37°57' E 023°38'0 0.0
2016-Feb-06 14:33N 37°57' E 023°38'0 0.0
2016-Feb-06 13:33N 37°57' E 023°38'0 0.0
2016-Feb-06 12:33N 37°57' E 023°38'0 0.0
2016-Feb-06 11:33N 37°57' E 023°38'0 0.0
2016-Feb-06 10:33N 37°57' E 023°38'0 0.0
2016-Feb-06 09:33N 37°57' E 023°38'0 0.0
2016-Feb-06 08:33N 37°57' E 023°38'0 0.0
2016-Feb-06 07:33N 37°57' E 023°38'0 0.0
2016-Feb-06 06:33N 37°57' E 023°38'0 0.0
2016-Feb-06 05:33N 37°57' E 023°38'0 0.0
2016-Feb-06 04:33N 37°57' E 023°38'0 0.0
2016-Feb-06 03:33N 37°57' E 023°38'0 0.0
2016-Feb-06 02:33N 37°57' E 023°38'0 0.0
2016-Feb-06 01:33N 37°57' E 023°38'0 0.0
2016-Feb-06 00:33N 37°57' E 023°38'0 0.0
2016-Feb-05 23:33N 37°57' E 023°38'0 0.0
2016-Feb-05 22:33N 37°57' E 023°38'0 0.0
2016-Feb-05 21:33N 37°57' E 023°38'0 0.0
2016-Feb-05 20:33N 37°57' E 023°38'0 0.0
2016-Feb-05 19:33N 37°57' E 023°38'0 0.0
2016-Feb-05 18:33N 37°57' E 023°38'0 0.0
2016-Feb-05 17:33N 37°57' E 023°38'0 0.0
2016-Feb-05 16:33N 37°57' E 023°38'0 0.0
2016-Feb-05 15:33N 37°57' E 023°38'0 0.0
2016-Feb-05 14:33N 37°57' E 023°38'0 0.0
2016-Feb-05 13:33N 37°57' E 023°38'0 0.0
2016-Feb-05 12:33N 37°57' E 023°38'0 0.0
2016-Feb-05 11:33N 37°57' E 023°38'0 0.0
2016-Feb-05 10:33N 37°57' E 023°38'0 0.0
2016-Feb-05 09:33N 37°57' E 023°38'0 0.0
2016-Feb-05 08:33N 37°57' E 023°38'0 0.0
2016-Feb-05 07:33N 37°57' E 023°38'0 0.0
2016-Feb-05 06:33N 37°57' E 023°38'0 0.0
2016-Feb-05 05:33N 37°57' E 023°38'0 0.0
2016-Feb-05 04:33N 37°57' E 023°38'0 0.0
2016-Feb-05 03:33N 37°57' E 023°38'0 0.0
2016-Feb-05 02:33N 37°57' E 023°38'0 0.0
2016-Feb-05 01:33N 37°57' E 023°38'0 0.0
2016-Feb-05 00:33N 37°57' E 023°38'0 0.0
2016-Feb-04 23:33N 37°57' E 023°38'0 0.0
2016-Feb-04 22:33N 37°57' E 023°38'0 0.0
2016-Feb-04 21:33N 37°57' E 023°38'  

Dump ship's entire track history